CheckWX is a tool to help pilots better visualize weather data.  It is not intended as a substitute for an official pre-flight weather briefing.

07:35:36 UTC

ELLX METAR
Luxembourg-Findel International Airport
Luxembourg, Luxembourg
Current

46 mins ago

ELLX 210650Z 30009G19KT 270V330 9999 OVC007 11/09 Q1012 NOSIG
Observed
May-21 @ 06:50 UTC
Wind
  • 300° at 9 KTS
  • Gusting to 19 KTS
Visibility
10,000+ meters
Flight Rules
IFR
Cloud Levels
  • Overcast at 700' AGL
Temperature
11°C / 52°F
Dewpoint
C / 48°F
Humidity
88%
Altimeter
29.88" Hg
Pressure
1011.92 hPa
Previous

1 hour ago

ELLX 210620Z 30009KT 260V320 8000 OVC008 11/09 Q1011 NOSIG
Observed
May-21 @ 06:20 UTC
Wind
  • 300° at 9 KTS
Visibility
7,998 meters
Flight Rules
IFR
Cloud Levels
  • Overcast at 800' AGL
Temperature
11°C / 52°F
Dewpoint
C / 48°F
Humidity
88%
Altimeter
29.85" Hg
Pressure
1010.92 hPa
Previous

2 hours ago

ELLX 210550Z 30009KT 260V330 9999 OVC008 11/09 Q1011 NOSIG
Observed
May-21 @ 05:50 UTC
Wind
  • 300° at 9 KTS
Visibility
10,000+ meters
Flight Rules
IFR
Cloud Levels
  • Overcast at 800' AGL
Temperature
11°C / 52°F
Dewpoint
C / 48°F
Humidity
88%
Altimeter
29.85" Hg
Pressure
1010.92 hPa